createdAt,value
2023-05-02T00:00:10.077Z,101769.97
2023-05-02T00:02:37.464Z,101775.22
2023-05-02T00:05:06.897Z,101771.81
2023-05-02T00:07:36.899Z,101787.47
2023-05-02T00:10:06.037Z,101780.59
2023-05-02T00:12:34.683Z,101780.81
2023-05-02T00:15:02.316Z,101789.59
2023-05-02T00:17:31.211Z,101792.28
2023-05-02T00:19:59.438Z,101788.03
2023-05-02T00:22:27.167Z,101795.97
2023-05-02T00:24:58.844Z,101794.38
2023-05-02T00:27:26.587Z,101796.19
2023-05-02T00:29:55.960Z,101794.59
2023-05-02T00:32:23.697Z,101792.75
2023-05-02T00:34:51.224Z,101804.91
2023-05-02T00:37:19.826Z,101794.59
2023-05-02T00:39:47.110Z,101797.22
2023-05-02T00:42:14.415Z,101803.38
2023-05-02T00:44:41.707Z,101803.31
2023-05-02T00:47:10.741Z,101812.88
2023-05-02T00:49:39.012Z,101795.56
2023-05-02T00:52:07.704Z,101807.75
2023-05-02T00:54:39.224Z,101803.47
2023-05-02T00:57:09.437Z,101809.72
2023-05-02T00:59:37.506Z,101808.13
2023-05-02T01:02:43.246Z,101797.09
2023-05-02T01:06:10.646Z,101809.41
2023-05-02T01:09:00.981Z,101808.34
2023-05-02T01:12:22.043Z,101807.63
2023-05-02T01:14:56.646Z,101805.97
2023-05-02T01:17:32.909Z,101806.97
2023-05-02T01:20:10.100Z,101806.19
2023-05-02T01:22:41.121Z,101808.09
2023-05-02T01:25:17.107Z,101812.53
2023-05-02T01:28:38.808Z,101809.13
2023-05-02T01:31:09.212Z,101800.66
2023-05-02T01:33:39.302Z,101807.44
2023-05-02T01:36:09.787Z,101804.94
2023-05-02T01:38:40.613Z,101806.56
2023-05-02T01:41:11.311Z,101812.69
2023-05-02T01:43:41.745Z,101811.88
2023-05-02T01:46:14.574Z,101814.44
2023-05-02T01:48:47.486Z,101811.03
2023-05-02T01:51:19.072Z,101817.00
2023-05-02T01:53:50.404Z,101823.09
2023-05-02T01:56:21.367Z,101817.97
2023-05-02T01:58:51.129Z,101830.19
2023-05-02T02:01:20.297Z,101836.44
2023-05-02T02:03:48.562Z,101838.28
2023-05-02T02:06:21.136Z,101835.56
2023-05-02T02:08:50.952Z,101840.75
2023-05-02T02:11:33.410Z,101835.44
2023-05-02T02:14:26.647Z,101848.53
2023-05-02T02:17:01.679Z,101849.41
2023-05-02T02:19:33.303Z,101850.31
2023-05-02T02:22:05.270Z,101847.69
2023-05-02T02:24:36.855Z,101842.50
2023-05-02T02:27:04.295Z,101851.38
2023-05-02T02:29:31.710Z,101846.16
2023-05-02T02:32:00.173Z,101850.44
2023-05-02T02:34:27.488Z,101850.47
2023-05-02T02:37:05.764Z,101853.84
2023-05-02T02:40:05.938Z,101852.09
2023-05-02T02:43:21.538Z,101859.91
2023-05-02T02:46:46.431Z,101863.34
2023-05-02T02:50:04.115Z,101861.63
2023-05-02T02:53:05.453Z,101859.03
2023-05-02T02:56:00.610Z,101861.69
2023-05-02T02:59:05.242Z,101866.88
2023-05-02T03:01:40.012Z,101871.22
2023-05-02T03:04:13.469Z,101879.03
2023-05-02T03:06:42.312Z,101876.41
2023-05-02T03:09:20.445Z,101882.50
2023-05-02T03:11:51.968Z,101887.69
2023-05-02T03:14:19.221Z,101885.03
2023-05-02T03:16:47.122Z,101891.19
2023-05-02T03:19:16.331Z,101897.41
2023-05-02T03:21:43.634Z,101895.06
2023-05-02T03:24:19.205Z,101914.81
2023-05-02T03:26:48.203Z,101913.25
2023-05-02T03:29:18.866Z,101924.00
2023-05-02T03:31:46.231Z,101915.50
2023-05-02T03:34:13.716Z,101919.38
2023-05-02T03:36:42.159Z,101925.81
2023-05-02T03:39:09.477Z,101927.75
2023-05-02T03:41:37.385Z,101923.50
2023-05-02T03:44:09.922Z,101939.06
2023-05-02T03:46:37.933Z,101943.56
2023-05-02T03:49:10.475Z,101947.03
2023-05-02T03:51:38.443Z,101932.16
2023-05-02T03:54:05.834Z,101937.38
2023-05-02T03:56:34.189Z,101937.19
2023-05-02T03:59:24.303Z,101945.03
2023-05-02T04:01:52.265Z,101953.72
2023-05-02T04:04:24.224Z,101959.16
2023-05-02T04:06:54.116Z,101956.59
2023-05-02T04:09:25.629Z,101962.78
2023-05-02T04:12:16.927Z,101973.19
2023-05-02T04:14:48.274Z,101973.19
2023-05-02T04:17:16.162Z,101965.50
2023-05-02T04:19:48.176Z,101976.59
2023-05-02T04:22:16.064Z,101974.03
2023-05-02T04:24:47.883Z,101987.41
2023-05-02T04:27:15.810Z,101986.53
2023-05-02T04:29:43.941Z,102001.63
2023-05-02T04:32:12.879Z,102000.97
2023-05-02T04:34:41.556Z,102008.88
2023-05-02T04:37:09.935Z,102003.69
2023-05-02T04:39:38.180Z,101999.41
2023-05-02T04:42:14.281Z,102009.69
2023-05-02T04:44:51.110Z,102016.59
2023-05-02T04:47:18.430Z,102019.22
2023-05-02T04:49:45.991Z,102019.22
2023-05-02T04:52:13.453Z,102021.72
2023-05-02T04:54:40.885Z,102016.44
2023-05-02T04:57:10.197Z,102029.25
2023-05-02T04:59:42.830Z,102023.66
2023-05-02T05:02:12.711Z,102039.09
2023-05-02T05:04:42.885Z,102044.03
2023-05-02T05:07:10.139Z,102048.38
2023-05-02T05:09:37.506Z,102055.50
2023-05-02T05:12:12.940Z,102060.69
2023-05-02T05:14:41.490Z,102066.06
2023-05-02T05:17:09.783Z,102056.59
2023-05-02T05:19:39.419Z,102069.72
2023-05-02T05:22:08.799Z,102069.69
2023-05-02T05:24:36.334Z,102072.41
2023-05-02T05:27:06.115Z,102082.03
2023-05-02T05:29:33.588Z,102082.13
2023-05-02T05:32:01.558Z,102077.13
2023-05-02T05:34:30.734Z,102077.97
2023-05-02T05:37:01.121Z,102090.97
2023-05-02T05:39:28.905Z,102095.25
2023-05-02T05:44:43.511Z,102097.91
2023-05-02T05:47:12.310Z,102101.34
2023-05-02T05:49:40.085Z,102103.94
2023-05-02T05:52:12.043Z,102104.22
2023-05-02T05:54:43.498Z,102107.63
2023-05-02T05:57:10.914Z,102116.00
2023-05-02T05:59:40.784Z,102114.09
2023-05-02T06:02:09.386Z,102122.66
2023-05-02T06:04:38.374Z,102122.97
2023-05-02T06:07:07.560Z,102128.16
2023-05-02T06:09:36.255Z,102125.91
2023-05-02T06:12:06.025Z,102134.81
2023-05-02T06:14:34.660Z,102140.84
2023-05-02T06:17:03.559Z,102137.47
2023-05-02T06:19:38.804Z,102139.44
2023-05-02T06:22:07.174Z,102142.94
2023-05-02T06:24:34.649Z,102146.53
2023-05-02T06:27:04.431Z,102150.13
2023-05-02T06:29:38.943Z,102152.84
2023-05-02T06:32:06.985Z,102160.84
2023-05-02T06:34:40.499Z,102173.22
2023-05-02T06:37:10.066Z,102165.50
2023-05-02T06:39:39.098Z,102176.78
2023-05-02T06:42:06.456Z,102184.56
2023-05-02T06:44:34.600Z,102188.03
2023-05-02T06:47:03.868Z,102199.56
2023-05-02T06:49:32.911Z,102203.84
2023-05-02T06:52:00.707Z,102203.03
2023-05-02T06:54:29.217Z,102209.91
2023-05-02T06:56:58.688Z,102210.66
2023-05-02T06:59:28.498Z,102206.16
2023-05-02T07:01:55.799Z,102219.75
2023-05-02T07:04:26.369Z,102212.31
2023-05-02T07:06:53.866Z,102219.00
2023-05-02T07:09:22.892Z,102223.94
2023-05-02T07:11:52.278Z,102229.97
2023-05-02T07:14:19.568Z,102237.19
2023-05-02T07:16:47.457Z,102241.44
2023-05-02T07:19:15.001Z,102247.66
2023-05-02T07:21:42.421Z,102243.28
2023-05-02T07:24:09.761Z,102249.44
2023-05-02T07:26:37.213Z,102258.78
2023-05-02T07:29:07.050Z,102255.38
2023-05-02T07:31:34.632Z,102266.09
2023-05-02T07:34:01.895Z,102257.41
2023-05-02T07:36:29.245Z,102262.50
2023-05-02T07:38:56.656Z,102258.16
2023-05-02T07:41:24.074Z,102271.28
2023-05-02T07:43:51.488Z,102265.84
2023-05-02T07:46:18.872Z,102266.72
2023-05-02T07:48:46.259Z,102276.97
2023-05-02T07:51:13.800Z,102270.78
2023-05-02T07:53:41.551Z,102275.97
2023-05-02T07:56:09.139Z,102273.72
2023-05-02T07:58:39.260Z,102274.03
2023-05-02T08:01:07.068Z,102270.94
2023-05-02T08:03:36.841Z,102295.75
2023-05-02T08:06:07.180Z,102285.28
2023-05-02T08:08:36.379Z,102278.69
2023-05-02T08:11:04.094Z,102292.59
2023-05-02T08:13:32.573Z,102293.50
2023-05-02T08:16:01.648Z,102296.06
2023-05-02T08:18:29.936Z,102297.41
2023-05-02T08:20:58.600Z,102305.91
2023-05-02T08:23:26.221Z,102309.72
2023-05-02T08:25:54.852Z,102303.50
2023-05-02T08:28:22.663Z,102304.16
2023-05-02T08:30:49.995Z,102313.28
2023-05-02T08:33:17.464Z,102318.66
2023-05-02T08:35:44.899Z,102313.91
2023-05-02T08:38:14.301Z,102325.13
2023-05-02T08:40:43.320Z,102321.63
2023-05-02T08:43:13.074Z,102318.28
2023-05-02T08:45:45.257Z,102337.91
2023-05-02T08:48:17.414Z,102323.19
2023-05-02T08:50:48.230Z,102337.69
2023-05-02T08:53:18.042Z,102338.09
2023-05-02T08:55:49.321Z,102335.97
2023-05-02T08:58:17.836Z,102342.22
2023-05-02T09:00:52.153Z,102346.31
2023-05-02T09:03:34.288Z,102348.97
2023-05-02T09:06:13.107Z,102365.53
2023-05-02T09:08:42.904Z,102353.88
2023-05-02T09:11:13.696Z,102359.75
2023-05-02T09:13:48.349Z,102354.22
2023-05-02T09:16:26.899Z,102364.72
2023-05-02T09:18:59.380Z,102362.16
2023-05-02T09:21:42.306Z,102370.81
2023-05-02T09:24:22.249Z,102376.63
2023-05-02T09:27:05.428Z,102377.66
2023-05-02T09:29:40.959Z,102386.97
2023-05-02T09:32:08.311Z,102385.88
2023-05-02T09:34:39.244Z,102387.03
2023-05-02T09:37:07.018Z,102390.69
2023-05-02T09:39:34.354Z,102383.22
2023-05-02T09:42:02.761Z,102390.28
2023-05-02T09:44:46.225Z,102383.72
2023-05-02T09:47:27.342Z,102390.47
2023-05-02T09:49:59.927Z,102388.69
2023-05-02T09:52:29.533Z,102396.38
2023-05-02T09:54:57.880Z,102396.19
2023-05-02T09:57:43.705Z,102396.72
2023-05-02T10:00:16.154Z,102399.84
2023-05-02T10:02:43.792Z,102397.22
2023-05-02T10:05:20.335Z,102416.88
2023-05-02T10:07:52.003Z,102408.69
2023-05-02T10:10:22.596Z,102403.84
2023-05-02T10:12:53.021Z,102403.97
2023-05-02T10:15:23.585Z,102400.81
2023-05-02T10:17:56.893Z,102401.66
2023-05-02T10:20:43.162Z,102411.78
2023-05-02T10:23:12.368Z,102408.16
2023-05-02T10:25:43.269Z,102406.84
2023-05-02T10:28:11.389Z,102408.22
2023-05-02T10:30:41.480Z,102419.69
2023-05-02T10:33:11.432Z,102418.66
2023-05-02T10:35:47.276Z,102415.59
2023-05-02T10:38:26.766Z,102416.88
2023-05-02T10:41:09.121Z,102415.56
2023-05-02T10:43:39.180Z,102419.47
2023-05-02T10:46:36.199Z,102424.75
2023-05-02T10:49:11.218Z,102423.97
2023-05-02T10:51:43.575Z,102423.34
2023-05-02T10:54:21.828Z,102425.03
2023-05-02T10:57:08.587Z,102419.53
2023-05-02T11:00:22.201Z,102414.84
2023-05-02T11:02:50.518Z,102415.06
2023-05-02T11:05:19.034Z,102412.72
2023-05-02T11:08:16.520Z,102417.41
2023-05-02T11:10:48.930Z,102427.66
2023-05-02T11:13:50.029Z,102428.88
2023-05-02T11:16:18.834Z,102439.94
2023-05-02T11:19:03.735Z,102431.72
2023-05-02T11:21:32.919Z,102440.75
2023-05-02T11:24:42.376Z,102438.22
2023-05-02T11:27:38.016Z,102442.78
2023-05-02T11:30:09.318Z,102438.91
2023-05-02T11:32:45.887Z,102434.31
2023-05-02T11:35:37.372Z,102432.03
2023-05-02T11:38:17.359Z,102431.63
2023-05-02T11:41:02.959Z,102427.84
2023-05-02T11:43:32.725Z,102421.56
2023-05-02T11:46:02.543Z,102425.25
2023-05-02T11:48:34.897Z,102422.16
2023-05-02T11:51:04.433Z,102424.25
2023-05-02T11:53:32.870Z,102435.44
2023-05-02T11:56:04.839Z,102428.31
2023-05-02T11:58:34.283Z,102429.50
2023-05-02T12:01:17.351Z,102425.53
2023-05-02T12:03:45.245Z,102439.16
2023-05-02T12:06:18.947Z,102447.78
2023-05-02T12:08:50.576Z,102443.69
2023-05-02T12:11:21.640Z,102447.00
2023-05-02T12:13:50.678Z,102450.16
2023-05-02T12:16:19.723Z,102450.56
2023-05-02T12:18:49.014Z,102444.75
2023-05-02T12:21:17.990Z,102446.38
2023-05-02T12:23:46.881Z,102457.03
2023-05-02T12:26:25.590Z,102452.59
2023-05-02T12:28:55.769Z,102451.59
2023-05-02T12:31:25.052Z,102456.91
2023-05-02T12:34:08.442Z,102467.47
2023-05-02T12:36:43.608Z,102466.38
2023-05-02T12:39:12.070Z,102460.41
2023-05-02T12:41:44.181Z,102467.31
2023-05-02T12:44:13.022Z,102465.44
2023-05-02T12:47:06.155Z,102467.78
2023-05-02T12:50:08.612Z,102470.56
2023-05-02T12:52:59.169Z,102484.00
2023-05-02T12:55:27.860Z,102480.91
2023-05-02T12:58:17.259Z,102486.00
2023-05-02T13:00:47.872Z,102496.31
2023-05-02T13:03:16.119Z,102483.09
2023-05-02T13:05:47.568Z,102478.63
2023-05-02T13:08:21.264Z,102478.88
2023-05-02T13:10:49.352Z,102479.88
2023-05-02T13:13:16.859Z,102494.47
2023-05-02T13:15:45.541Z,102491.41
2023-05-02T13:18:16.610Z,102488.06
2023-05-02T13:20:46.429Z,102481.72
2023-05-02T13:23:16.946Z,102485.06
2023-05-02T13:25:47.573Z,102489.56
2023-05-02T13:28:23.791Z,102489.94
2023-05-02T13:30:51.282Z,102480.56
2023-05-02T13:33:28.379Z,102484.16
2023-05-02T13:35:57.005Z,102481.97
2023-05-02T13:38:26.145Z,102481.41
2023-05-02T13:41:01.729Z,102482.97
2023-05-02T13:43:30.062Z,102485.28
2023-05-02T13:46:00.085Z,102485.97
2023-05-02T13:48:30.047Z,102467.78
2023-05-02T13:50:59.300Z,102479.00
2023-05-02T13:53:29.424Z,102484.19
2023-05-02T13:55:57.654Z,102479.34
2023-05-02T13:58:26.220Z,102480.28
2023-05-02T14:00:53.578Z,102480.09
2023-05-02T14:03:21.910Z,102496.78
2023-05-02T14:05:49.281Z,102488.38
2023-05-02T14:08:25.489Z,102488.47
2023-05-02T14:10:54.365Z,102496.34
2023-05-02T14:13:23.072Z,102479.44
2023-05-02T14:16:05.261Z,102484.81
2023-05-02T14:18:34.119Z,102485.56
2023-05-02T14:21:06.490Z,102478.72
2023-05-02T14:23:34.068Z,102478.22
2023-05-02T14:26:13.751Z,102477.66
2023-05-02T14:28:45.978Z,102482.00
2023-05-02T14:31:14.126Z,102477.84
2023-05-02T14:33:43.132Z,102490.84
2023-05-02T14:36:15.020Z,102494.66
2023-05-02T14:38:50.539Z,102490.31
2023-05-02T14:41:21.566Z,102497.53
2023-05-02T14:43:53.975Z,102498.03
2023-05-02T14:46:23.877Z,102494.47
2023-05-02T14:48:52.883Z,102489.47
2023-05-02T14:51:23.234Z,102494.03
2023-05-02T14:53:51.721Z,102494.88
2023-05-02T14:56:21.067Z,102494.72
2023-05-02T14:59:03.188Z,102485.94
2023-05-02T15:01:30.781Z,102482.78
2023-05-02T15:04:06.408Z,102484.50
2023-05-02T15:06:38.830Z,102484.84
2023-05-02T15:09:12.906Z,102488.38
2023-05-02T15:11:51.299Z,102488.63
2023-05-02T15:14:22.523Z,102487.41
2023-05-02T15:17:08.927Z,102486.53
2023-05-02T15:19:40.002Z,102487.75
2023-05-02T15:22:13.522Z,102491.03
2023-05-02T15:24:41.682Z,102502.56
2023-05-02T15:27:16.664Z,102488.25
2023-05-02T15:29:44.429Z,102506.41
2023-05-02T15:32:13.698Z,102492.75
2023-05-02T15:34:49.340Z,102498.91
2023-05-02T15:37:17.130Z,102501.41
2023-05-02T15:39:45.533Z,102502.41
2023-05-02T15:42:13.931Z,102495.63
2023-05-02T15:45:02.220Z,102507.09
2023-05-02T15:47:31.533Z,102512.69
2023-05-02T15:49:59.363Z,102512.28
2023-05-02T15:52:27.292Z,102505.41
2023-05-02T15:54:56.124Z,102509.31
2023-05-02T15:57:26.671Z,102504.78
2023-05-02T15:59:54.036Z,102503.69
2023-05-02T16:02:22.469Z,102507.72
2023-05-02T16:04:49.811Z,102513.09
2023-05-02T16:07:17.091Z,102503.47
2023-05-02T16:09:44.481Z,102491.16
2023-05-02T16:12:11.934Z,102505.38
2023-05-02T16:14:39.376Z,102519.56
2023-05-02T16:17:06.816Z,102512.41
2023-05-02T16:19:34.110Z,102508.13
2023-05-02T16:22:03.151Z,102517.63
2023-05-02T16:24:30.874Z,102516.28
2023-05-02T16:26:59.413Z,102514.09
2023-05-02T16:29:26.752Z,102508.19
2023-05-02T16:31:54.464Z,102510.31
2023-05-02T16:34:23.581Z,102503.09
2023-05-02T16:36:54.107Z,102502.66
2023-05-02T16:39:22.692Z,102510.88
2023-05-02T16:41:51.209Z,102508.59
2023-05-02T16:44:18.740Z,102515.09
2023-05-02T16:46:47.571Z,102511.91
2023-05-02T16:49:14.851Z,102518.28
2023-05-02T16:51:42.926Z,102518.50
2023-05-02T16:54:11.093Z,102513.47
2023-05-02T16:56:40.732Z,102528.31
2023-05-02T16:59:10.060Z,102517.00
2023-05-02T17:01:37.741Z,102512.53
2023-05-02T17:04:05.118Z,102515.75
2023-05-02T17:06:32.460Z,102524.28
2023-05-02T17:09:00.201Z,102516.06
2023-05-02T17:11:28.552Z,102516.09
2023-05-02T17:13:56.282Z,102521.59
2023-05-02T17:16:23.591Z,102526.16
2023-05-02T17:18:50.894Z,102522.88
2023-05-02T17:21:19.748Z,102529.16
2023-05-02T17:23:47.529Z,102532.50
2023-05-02T17:26:17.671Z,102544.06
2023-05-02T17:28:45.930Z,102535.69
2023-05-02T17:31:13.625Z,102537.78
2023-05-02T17:33:42.304Z,102534.63
2023-05-02T17:36:09.889Z,102531.41
2023-05-02T17:38:37.217Z,102539.13
2023-05-02T17:41:05.738Z,102539.81
2023-05-02T17:43:33.057Z,102541.59
2023-05-02T17:46:00.384Z,102532.34
2023-05-02T17:48:29.889Z,102535.03
2023-05-02T17:51:04.700Z,102528.19
2023-05-02T17:53:32.108Z,102531.72
2023-05-02T17:56:03.496Z,102545.81
2023-05-02T17:58:35.101Z,102539.03
2023-05-02T18:01:11.213Z,102537.47
2023-05-02T18:03:39.025Z,102532.28
2023-05-02T18:06:07.063Z,102548.94
2023-05-02T18:08:34.790Z,102549.19
2023-05-02T18:11:03.679Z,102546.03
2023-05-02T18:13:31.061Z,102558.34
2023-05-02T18:16:01.494Z,102561.78
2023-05-02T18:18:30.323Z,102555.09
2023-05-02T18:20:58.926Z,102553.66
2023-05-02T18:23:26.159Z,102562.63
2023-05-02T18:25:54.808Z,102555.03
2023-05-02T18:28:22.415Z,102554.97
2023-05-02T18:30:50.456Z,102555.97
2023-05-02T18:33:18.457Z,102559.75
2023-05-02T18:35:47.914Z,102552.19
2023-05-02T18:38:16.152Z,102556.06
2023-05-02T18:40:43.628Z,102555.31
2023-05-02T18:43:13.623Z,102558.97
2023-05-02T18:45:40.965Z,102568.06
2023-05-02T18:48:15.092Z,102564.03
2023-05-02T18:50:43.415Z,102561.78
2023-05-02T18:53:12.435Z,102567.25
2023-05-02T18:55:39.673Z,102563.16
2023-05-02T18:58:06.952Z,102569.41
2023-05-02T19:00:36.961Z,102573.97
2023-05-02T19:03:04.684Z,102582.91
2023-05-02T19:05:34.652Z,102578.66
2023-05-02T19:08:02.027Z,102588.44
2023-05-02T19:10:30.318Z,102593.78
2023-05-02T19:12:59.012Z,102599.97
2023-05-02T19:15:26.961Z,102588.78
2023-05-02T19:17:55.840Z,102589.84
2023-05-02T19:20:23.592Z,102592.59
2023-05-02T19:22:54.102Z,102593.56
2023-05-02T19:25:25.306Z,102597.25
2023-05-02T19:27:55.040Z,102607.88
2023-05-02T19:30:22.494Z,102613.25
2023-05-02T19:32:50.382Z,102602.94
2023-05-02T19:35:18.132Z,102605.72
2023-05-02T19:37:45.554Z,102605.81
2023-05-02T19:40:13.985Z,102601.56
2023-05-02T19:42:41.369Z,102608.63
2023-05-02T19:45:09.996Z,102619.19
2023-05-02T19:47:38.496Z,102616.63
2023-05-02T19:50:07.029Z,102615.00
2023-05-02T19:52:34.811Z,102620.28
2023-05-02T19:55:02.483Z,102619.50
2023-05-02T19:57:29.968Z,102619.56
2023-05-02T19:59:57.641Z,102619.69
2023-05-02T20:02:25.565Z,102613.66
2023-05-02T20:04:53.028Z,102624.22
2023-05-02T20:07:20.442Z,102644.34
2023-05-02T20:09:47.732Z,102638.31
2023-05-02T20:12:14.951Z,102644.50
2023-05-02T20:14:42.387Z,102638.56
2023-05-02T20:17:10.679Z,102639.50
2023-05-02T20:19:38.006Z,102639.53
2023-05-02T20:22:05.260Z,102654.41
2023-05-02T20:24:32.490Z,102652.66
2023-05-02T20:26:59.848Z,102650.97
2023-05-02T20:29:27.101Z,102651.09
2023-05-02T20:31:56.273Z,102658.13
2023-05-02T20:34:24.277Z,102656.44
2023-05-02T20:36:53.372Z,102664.28
2023-05-02T20:39:21.767Z,102664.34
2023-05-02T20:41:49.801Z,102660.13
2023-05-02T20:44:22.444Z,102656.69
2023-05-02T20:46:51.517Z,102655.91
2023-05-02T20:49:19.053Z,102652.50
2023-05-02T20:51:46.340Z,102662.97
2023-05-02T20:54:15.602Z,102662.22
2023-05-02T20:56:42.936Z,102668.34
2023-05-02T20:59:11.512Z,102670.16
2023-05-02T21:01:38.979Z,102674.53
2023-05-02T21:04:06.411Z,102672.88
2023-05-02T21:06:34.827Z,102679.00
2023-05-02T21:09:02.833Z,102679.06
2023-05-02T21:11:30.158Z,102677.41
2023-05-02T21:13:57.453Z,102668.78
2023-05-02T21:16:24.696Z,102674.91
2023-05-02T21:18:53.117Z,102680.16
2023-05-02T21:21:20.470Z,102680.22
2023-05-02T21:23:47.771Z,102674.16
2023-05-02T21:26:15.003Z,102675.09
2023-05-02T21:28:42.352Z,102679.47
2023-05-02T21:31:09.951Z,102678.66
2023-05-02T21:33:37.348Z,102676.97
2023-05-02T21:36:04.871Z,102682.19
2023-05-02T21:38:32.168Z,102675.31
2023-05-02T21:41:04.680Z,102684.88
2023-05-02T21:43:39.081Z,102692.72
2023-05-02T21:46:06.733Z,102684.06
2023-05-02T21:48:34.480Z,102683.25
2023-05-02T21:51:09.757Z,102689.38
2023-05-02T21:53:37.529Z,102676.38
2023-05-02T21:56:07.877Z,102678.16
2023-05-02T21:58:35.310Z,102670.34
2023-05-02T22:01:03.259Z,102673.00
2023-05-02T22:03:31.016Z,102672.13
2023-05-02T22:06:01.054Z,102667.84
2023-05-02T22:08:29.531Z,102667.88
2023-05-02T22:10:58.540Z,102661.81
2023-05-02T22:13:25.805Z,102662.72
2023-05-02T22:15:53.087Z,102671.41
2023-05-02T22:18:20.490Z,102667.09
2023-05-02T22:20:48.218Z,102659.31
2023-05-02T22:23:15.793Z,102661.97
2023-05-02T22:25:46.293Z,102659.38
2023-05-02T22:28:13.903Z,102655.09
2023-05-02T22:30:45.124Z,102655.97
2023-05-02T22:33:14.168Z,102652.50
2023-05-02T22:35:44.445Z,102662.03
2023-05-02T22:38:18.914Z,102661.19
2023-05-02T22:40:46.656Z,102648.22
2023-05-02T22:43:13.950Z,102649.13
2023-05-02T22:45:41.219Z,102650.88
2023-05-02T22:48:08.549Z,102650.03
2023-05-02T22:50:35.845Z,102652.66
2023-05-02T22:53:05.838Z,102652.69
2023-05-02T22:55:37.127Z,102656.16
2023-05-02T22:58:04.482Z,102659.66
2023-05-02T23:00:32.108Z,102654.50
2023-05-02T23:03:00.228Z,102659.72
2023-05-02T23:05:27.670Z,102663.19
2023-05-02T23:07:55.435Z,102657.13
2023-05-02T23:10:22.787Z,102658.00
2023-05-02T23:12:50.098Z,102663.19
2023-05-02T23:15:17.794Z,102659.75
2023-05-02T23:17:45.116Z,102658.88
2023-05-02T23:20:12.757Z,102656.28
2023-05-02T23:22:46.672Z,102660.63
2023-05-02T23:25:15.649Z,102664.97
2023-05-02T23:27:42.943Z,102659.78
2023-05-02T23:30:11.109Z,102658.06
2023-05-02T23:32:39.436Z,102670.22
2023-05-02T23:35:07.957Z,102673.69
2023-05-02T23:37:35.841Z,102678.06
2023-05-02T23:40:03.710Z,102677.16
2023-05-02T23:42:32.040Z,102674.59
2023-05-02T23:44:59.337Z,102665.09
2023-05-02T23:47:27.110Z,102684.16
2023-05-02T23:49:54.577Z,102682.44
2023-05-02T23:52:21.810Z,102678.09
2023-05-02T23:54:52.257Z,102677.22
2023-05-02T23:57:19.601Z,102677.25
2023-05-02T23:59:46.931Z,102676.38
